sensor_id;sensor_type;location;lat;lon;timestamp;P1;durP1;ratioP1;P2;durP2;ratioP2
9374;SDS011;4727;51.202;6.344;2023-10-09T00:00:25;7.00;;;3.83;;
9374;SDS011;4727;51.202;6.344;2023-10-09T00:03:03;4.90;;;4.03;;
9374;SDS011;4727;51.202;6.344;2023-10-09T00:05:32;5.67;;;3.93;;
9374;SDS011;4727;51.202;6.344;2023-10-09T00:08:13;5.00;;;4.50;;
9374;SDS011;4727;51.202;6.344;2023-10-09T00:10:50;5.50;;;3.60;;
9374;SDS011;4727;51.202;6.344;2023-10-09T00:13:22;5.27;;;3.60;;
9374;SDS011;4727;51.202;6.344;2023-10-09T00:15:56;5.07;;;3.50;;
9374;SDS011;4727;51.202;6.344;2023-10-09T00:18:26;4.23;;;3.33;;
9374;SDS011;4727;51.202;6.344;2023-10-09T00:20:58;3.87;;;2.90;;
9374;SDS011;4727;51.202;6.344;2023-10-09T00:23:37;9.83;;;4.63;;
9374;SDS011;4727;51.202;6.344;2023-10-09T00:26:04;6.97;;;4.30;;
9374;SDS011;4727;51.202;6.344;2023-10-09T00:28:41;4.53;;;3.30;;
9374;SDS011;4727;51.202;6.344;2023-10-09T00:31:09;4.47;;;3.50;;
9374;SDS011;4727;51.202;6.344;2023-10-09T00:33:40;8.17;;;4.63;;
9374;SDS011;4727;51.202;6.344;2023-10-09T00:36:09;7.93;;;3.80;;
9374;SDS011;4727;51.202;6.344;2023-10-09T00:38:38;5.57;;;4.00;;
9374;SDS011;4727;51.202;6.344;2023-10-09T00:41:16;5.07;;;3.77;;
9374;SDS011;4727;51.202;6.344;2023-10-09T00:43:47;4.87;;;3.80;;
9374;SDS011;4727;51.202;6.344;2023-10-09T00:46:15;6.90;;;4.20;;
9374;SDS011;4727;51.202;6.344;2023-10-09T00:48:48;6.83;;;4.07;;
9374;SDS011;4727;51.202;6.344;2023-10-09T00:51:16;5.40;;;4.00;;
9374;SDS011;4727;51.202;6.344;2023-10-09T00:53:51;6.67;;;3.70;;
9374;SDS011;4727;51.202;6.344;2023-10-09T00:56:19;6.60;;;3.13;;
9374;SDS011;4727;51.202;6.344;2023-10-09T00:59:03;4.17;;;3.40;;
9374;SDS011;4727;51.202;6.344;2023-10-09T01:01:34;4.60;;;3.60;;
9374;SDS011;4727;51.202;6.344;2023-10-09T01:04:02;3.87;;;3.57;;
9374;SDS011;4727;51.202;6.344;2023-10-09T01:06:40;5.43;;;3.90;;
9374;SDS011;4727;51.202;6.344;2023-10-09T01:09:12;3.63;;;3.23;;
9374;SDS011;4727;51.202;6.344;2023-10-09T01:11:39;3.20;;;2.83;;
9374;SDS011;4727;51.202;6.344;2023-10-09T01:14:24;4.60;;;3.37;;
9374;SDS011;4727;51.202;6.344;2023-10-09T01:16:49;4.77;;;3.87;;
9374;SDS011;4727;51.202;6.344;2023-10-09T01:19:18;5.63;;;3.17;;
9374;SDS011;4727;51.202;6.344;2023-10-09T01:21:55;6.00;;;3.60;;
9374;SDS011;4727;51.202;6.344;2023-10-09T01:24:29;7.20;;;3.73;;
9374;SDS011;4727;51.202;6.344;2023-10-09T01:26:56;9.30;;;3.30;;
9374;SDS011;4727;51.202;6.344;2023-10-09T01:29:24;5.97;;;4.17;;
9374;SDS011;4727;51.202;6.344;2023-10-09T01:31:53;7.83;;;3.63;;
9374;SDS011;4727;51.202;6.344;2023-10-09T01:34:41;4.80;;;3.33;;
9374;SDS011;4727;51.202;6.344;2023-10-09T01:37:11;3.63;;;2.80;;
9374;SDS011;4727;51.202;6.344;2023-10-09T01:39:43;7.57;;;3.97;;
9374;SDS011;4727;51.202;6.344;2023-10-09T01:42:16;4.63;;;3.03;;
9374;SDS011;4727;51.202;6.344;2023-10-09T01:45:08;11.20;;;4.23;;
9374;SDS011;4727;51.202;6.344;2023-10-09T01:47:52;5.47;;;3.47;;
9374;SDS011;4727;51.202;6.344;2023-10-09T01:50:21;4.97;;;3.60;;
9374;SDS011;4727;51.202;6.344;2023-10-09T01:52:49;5.17;;;3.73;;
9374;SDS011;4727;51.202;6.344;2023-10-09T01:55:19;6.10;;;3.63;;
9374;SDS011;4727;51.202;6.344;2023-10-09T01:57:59;4.17;;;3.40;;
9374;SDS011;4727;51.202;6.344;2023-10-09T02:00:30;4.13;;;3.40;;
9374;SDS011;4727;51.202;6.344;2023-10-09T02:03:00;5.83;;;3.90;;
9374;SDS011;4727;51.202;6.344;2023-10-09T02:05:29;4.47;;;3.37;;
9374;SDS011;4727;51.202;6.344;2023-10-09T02:07:58;4.53;;;3.57;;
9374;SDS011;4727;51.202;6.344;2023-10-09T02:10:24;4.17;;;3.77;;
9374;SDS011;4727;51.202;6.344;2023-10-09T02:12:50;4.03;;;3.27;;
9374;SDS011;4727;51.202;6.344;2023-10-09T02:15:22;4.93;;;3.63;;
9374;SDS011;4727;51.202;6.344;2023-10-09T02:18:09;4.63;;;4.07;;
9374;SDS011;4727;51.202;6.344;2023-10-09T02:20:46;6.03;;;3.37;;
9374;SDS011;4727;51.202;6.344;2023-10-09T02:23:36;3.20;;;2.73;;
9374;SDS011;4727;51.202;6.344;2023-10-09T02:26:15;4.13;;;3.40;;
9374;SDS011;4727;51.202;6.344;2023-10-09T02:28:54;4.53;;;3.80;;
9374;SDS011;4727;51.202;6.344;2023-10-09T02:31:24;4.17;;;3.10;;
9374;SDS011;4727;51.202;6.344;2023-10-09T02:34:00;5.73;;;3.57;;
9374;SDS011;4727;51.202;6.344;2023-10-09T02:36:29;5.67;;;3.50;;
9374;SDS011;4727;51.202;6.344;2023-10-09T02:38:55;6.43;;;3.70;;
9374;SDS011;4727;51.202;6.344;2023-10-09T02:41:21;5.60;;;3.90;;
9374;SDS011;4727;51.202;6.344;2023-10-09T02:43:53;4.17;;;3.27;;
9374;SDS011;4727;51.202;6.344;2023-10-09T02:46:23;3.73;;;3.43;;
9374;SDS011;4727;51.202;6.344;2023-10-09T02:48:55;6.50;;;3.73;;
9374;SDS011;4727;51.202;6.344;2023-10-09T02:51:28;5.40;;;3.33;;
9374;SDS011;4727;51.202;6.344;2023-10-09T02:54:01;4.37;;;3.80;;
9374;SDS011;4727;51.202;6.344;2023-10-09T02:56:48;3.53;;;3.23;;
9374;SDS011;4727;51.202;6.344;2023-10-09T02:59:40;6.37;;;3.50;;
9374;SDS011;4727;51.202;6.344;2023-10-09T03:02:07;4.63;;;3.43;;
9374;SDS011;4727;51.202;6.344;2023-10-09T03:04:32;7.10;;;3.57;;
9374;SDS011;4727;51.202;6.344;2023-10-09T03:06:58;4.67;;;3.50;;
9374;SDS011;4727;51.202;6.344;2023-10-09T03:09:25;5.90;;;3.33;;
9374;SDS011;4727;51.202;6.344;2023-10-09T03:11:52;8.00;;;4.03;;
9374;SDS011;4727;51.202;6.344;2023-10-09T03:14:27;6.60;;;3.70;;
9374;SDS011;4727;51.202;6.344;2023-10-09T03:16:55;4.40;;;3.67;;
9374;SDS011;4727;51.202;6.344;2023-10-09T03:19:22;7.00;;;3.60;;
9374;SDS011;4727;51.202;6.344;2023-10-09T03:21:50;4.73;;;3.60;;
9374;SDS011;4727;51.202;6.344;2023-10-09T03:24:15;5.60;;;3.03;;
9374;SDS011;4727;51.202;6.344;2023-10-09T03:26:41;5.07;;;3.23;;
9374;SDS011;4727;51.202;6.344;2023-10-09T03:29:10;7.43;;;3.43;;
9374;SDS011;4727;51.202;6.344;2023-10-09T03:31:36;5.10;;;3.77;;
9374;SDS011;4727;51.202;6.344;2023-10-09T03:34:03;3.80;;;3.20;;
9374;SDS011;4727;51.202;6.344;2023-10-09T03:36:29;4.10;;;3.23;;
9374;SDS011;4727;51.202;6.344;2023-10-09T03:39:02;4.07;;;2.97;;
9374;SDS011;4727;51.202;6.344;2023-10-09T03:41:43;5.27;;;3.80;;
9374;SDS011;4727;51.202;6.344;2023-10-09T03:44:11;5.77;;;3.23;;
9374;SDS011;4727;51.202;6.344;2023-10-09T03:46:43;6.13;;;3.50;;
9374;SDS011;4727;51.202;6.344;2023-10-09T03:49:11;5.57;;;3.87;;
9374;SDS011;4727;51.202;6.344;2023-10-09T03:51:38;4.43;;;3.63;;
9374;SDS011;4727;51.202;6.344;2023-10-09T03:54:04;7.67;;;3.93;;
9374;SDS011;4727;51.202;6.344;2023-10-09T03:56:33;4.87;;;3.57;;
9374;SDS011;4727;51.202;6.344;2023-10-09T03:59:00;9.57;;;4.00;;
9374;SDS011;4727;51.202;6.344;2023-10-09T04:01:28;5.33;;;3.67;;
9374;SDS011;4727;51.202;6.344;2023-10-09T04:03:54;4.17;;;3.63;;
9374;SDS011;4727;51.202;6.344;2023-10-09T04:06:24;5.97;;;4.13;;
9374;SDS011;4727;51.202;6.344;2023-10-09T04:09:17;5.77;;;3.40;;
9374;SDS011;4727;51.202;6.344;2023-10-09T04:11:51;5.50;;;3.50;;
9374;SDS011;4727;51.202;6.344;2023-10-09T04:14:36;4.20;;;3.73;;
9374;SDS011;4727;51.202;6.344;2023-10-09T04:17:22;3.60;;;3.30;;
9374;SDS011;4727;51.202;6.344;2023-10-09T04:19:48;7.00;;;4.07;;
9374;SDS011;4727;51.202;6.344;2023-10-09T04:22:37;6.40;;;3.50;;
9374;SDS011;4727;51.202;6.344;2023-10-09T04:25:05;6.43;;;3.93;;
9374;SDS011;4727;51.202;6.344;2023-10-09T04:27:50;6.47;;;3.67;;
9374;SDS011;4727;51.202;6.344;2023-10-09T04:30:25;6.13;;;3.37;;
9374;SDS011;4727;51.202;6.344;2023-10-09T04:32:51;6.10;;;3.67;;
9374;SDS011;4727;51.202;6.344;2023-10-09T04:35:20;4.50;;;3.60;;
9374;SDS011;4727;51.202;6.344;2023-10-09T04:37:49;8.37;;;3.87;;
9374;SDS011;4727;51.202;6.344;2023-10-09T04:40:28;4.97;;;3.50;;
9374;SDS011;4727;51.202;6.344;2023-10-09T04:43:13;5.53;;;3.43;;
9374;SDS011;4727;51.202;6.344;2023-10-09T04:45:48;5.23;;;3.97;;
9374;SDS011;4727;51.202;6.344;2023-10-09T04:48:31;5.90;;;3.57;;
9374;SDS011;4727;51.202;6.344;2023-10-09T04:51:03;6.63;;;4.33;;
9374;SDS011;4727;51.202;6.344;2023-10-09T04:53:46;5.80;;;4.37;;
9374;SDS011;4727;51.202;6.344;2023-10-09T04:56:15;5.90;;;5.30;;
9374;SDS011;4727;51.202;6.344;2023-10-09T04:58:41;6.67;;;4.53;;
9374;SDS011;4727;51.202;6.344;2023-10-09T05:01:08;3.93;;;3.57;;
9374;SDS011;4727;51.202;6.344;2023-10-09T05:03:38;5.50;;;4.07;;
9374;SDS011;4727;51.202;6.344;2023-10-09T05:06:05;8.80;;;4.53;;
9374;SDS011;4727;51.202;6.344;2023-10-09T05:08:47;5.20;;;3.63;;
9374;SDS011;4727;51.202;6.344;2023-10-09T05:11:14;5.00;;;4.13;;
9374;SDS011;4727;51.202;6.344;2023-10-09T05:13:59;8.07;;;4.53;;
9374;SDS011;4727;51.202;6.344;2023-10-09T05:16:38;4.23;;;3.80;;
9374;SDS011;4727;51.202;6.344;2023-10-09T05:19:19;7.17;;;4.07;;
9374;SDS011;4727;51.202;6.344;2023-10-09T05:22:14;6.00;;;4.20;;
9374;SDS011;4727;51.202;6.344;2023-10-09T05:25:06;6.47;;;4.70;;
9374;SDS011;4727;51.202;6.344;2023-10-09T05:27:41;6.00;;;4.40;;
9374;SDS011;4727;51.202;6.344;2023-10-09T05:30:15;6.83;;;4.27;;
9374;SDS011;4727;51.202;6.344;2023-10-09T05:32:53;7.00;;;4.00;;
9374;SDS011;4727;51.202;6.344;2023-10-09T05:35:45;4.83;;;4.37;;
9374;SDS011;4727;51.202;6.344;2023-10-09T05:38:30;5.30;;;4.20;;
9374;SDS011;4727;51.202;6.344;2023-10-09T05:41:00;6.47;;;4.17;;
9374;SDS011;4727;51.202;6.344;2023-10-09T05:43:46;5.97;;;4.33;;
9374;SDS011;4727;51.202;6.344;2023-10-09T05:46:30;7.40;;;4.67;;
9374;SDS011;4727;51.202;6.344;2023-10-09T05:49:00;10.30;;;6.97;;
9374;SDS011;4727;51.202;6.344;2023-10-09T05:51:34;6.87;;;4.23;;
9374;SDS011;4727;51.202;6.344;2023-10-09T05:54:06;5.83;;;4.30;;
9374;SDS011;4727;51.202;6.344;2023-10-09T05:56:51;7.33;;;4.33;;
9374;SDS011;4727;51.202;6.344;2023-10-09T05:59:55;7.80;;;4.30;;
9374;SDS011;4727;51.202;6.344;2023-10-09T06:02:52;5.00;;;4.37;;
9374;SDS011;4727;51.202;6.344;2023-10-09T06:05:37;5.87;;;4.40;;
9374;SDS011;4727;51.202;6.344;2023-10-09T06:08:05;9.03;;;4.73;;
9374;SDS011;4727;51.202;6.344;2023-10-09T06:10:32;5.83;;;3.97;;
9374;SDS011;4727;51.202;6.344;2023-10-09T06:13:05;7.20;;;4.80;;
9374;SDS011;4727;51.202;6.344;2023-10-09T06:15:36;6.23;;;4.27;;
9374;SDS011;4727;51.202;6.344;2023-10-09T06:18:22;5.03;;;4.40;;
9374;SDS011;4727;51.202;6.344;2023-10-09T06:20:50;10.70;;;4.73;;
9374;SDS011;4727;51.202;6.344;2023-10-09T06:23:34;5.40;;;4.67;;
9374;SDS011;4727;51.202;6.344;2023-10-09T06:26:29;6.40;;;5.17;;
9374;SDS011;4727;51.202;6.344;2023-10-09T06:28:58;4.50;;;4.03;;
9374;SDS011;4727;51.202;6.344;2023-10-09T06:31:39;6.10;;;4.43;;
9374;SDS011;4727;51.202;6.344;2023-10-09T06:34:26;7.70;;;5.50;;
9374;SDS011;4727;51.202;6.344;2023-10-09T06:37:00;7.47;;;5.00;;
9374;SDS011;4727;51.202;6.344;2023-10-09T06:39:42;7.43;;;4.80;;
9374;SDS011;4727;51.202;6.344;2023-10-09T06:42:20;5.37;;;4.60;;
9374;SDS011;4727;51.202;6.344;2023-10-09T06:45:04;6.77;;;4.40;;
9374;SDS011;4727;51.202;6.344;2023-10-09T06:47:33;7.70;;;5.03;;
9374;SDS011;4727;51.202;6.344;2023-10-09T06:50:20;8.97;;;4.10;;
9374;SDS011;4727;51.202;6.344;2023-10-09T06:52:46;5.13;;;4.37;;
9374;SDS011;4727;51.202;6.344;2023-10-09T06:55:37;7.03;;;4.53;;
9374;SDS011;4727;51.202;6.344;2023-10-09T06:58:22;4.93;;;4.00;;
9374;SDS011;4727;51.202;6.344;2023-10-09T07:00:52;7.07;;;4.30;;
9374;SDS011;4727;51.202;6.344;2023-10-09T07:03:36;5.60;;;4.20;;
9374;SDS011;4727;51.202;6.344;2023-10-09T07:06:17;8.03;;;4.80;;
9374;SDS011;4727;51.202;6.344;2023-10-09T07:08:55;5.70;;;5.00;;
9374;SDS011;4727;51.202;6.344;2023-10-09T07:11:37;5.90;;;4.20;;
9374;SDS011;4727;51.202;6.344;2023-10-09T07:14:04;6.07;;;4.13;;
9374;SDS011;4727;51.202;6.344;2023-10-09T07:16:31;4.80;;;3.97;;
9374;SDS011;4727;51.202;6.344;2023-10-09T07:19:06;8.93;;;5.00;;
9374;SDS011;4727;51.202;6.344;2023-10-09T07:21:35;4.80;;;4.07;;
9374;SDS011;4727;51.202;6.344;2023-10-09T07:24:03;7.47;;;4.87;;
9374;SDS011;4727;51.202;6.344;2023-10-09T07:26:40;9.30;;;4.23;;
9374;SDS011;4727;51.202;6.344;2023-10-09T07:29:12;5.57;;;3.87;;
9374;SDS011;4727;51.202;6.344;2023-10-09T07:31:41;8.90;;;4.90;;
9374;SDS011;4727;51.202;6.344;2023-10-09T07:34:10;10.37;;;5.40;;
9374;SDS011;4727;51.202;6.344;2023-10-09T07:36:55;5.57;;;4.20;;
9374;SDS011;4727;51.202;6.344;2023-10-09T07:39:28;6.57;;;4.93;;
9374;SDS011;4727;51.202;6.344;2023-10-09T07:41:59;7.00;;;5.53;;
9374;SDS011;4727;51.202;6.344;2023-10-09T07:44:51;3.90;;;3.60;;
9374;SDS011;4727;51.202;6.344;2023-10-09T07:47:20;6.43;;;4.70;;
9374;SDS011;4727;51.202;6.344;2023-10-09T07:50:11;7.03;;;4.67;;
9374;SDS011;4727;51.202;6.344;2023-10-09T07:52:36;5.37;;;4.33;;
9374;SDS011;4727;51.202;6.344;2023-10-09T07:55:08;5.97;;;4.63;;
9374;SDS011;4727;51.202;6.344;2023-10-09T07:57:51;6.37;;;4.77;;
9374;SDS011;4727;51.202;6.344;2023-10-09T08:00:17;6.67;;;4.57;;
9374;SDS011;4727;51.202;6.344;2023-10-09T08:03:01;8.53;;;5.10;;
9374;SDS011;4727;51.202;6.344;2023-10-09T08:05:28;9.77;;;5.00;;
9374;SDS011;4727;51.202;6.344;2023-10-09T08:08:09;7.23;;;4.30;;
9374;SDS011;4727;51.202;6.344;2023-10-09T08:10:53;6.53;;;4.47;;
9374;SDS011;4727;51.202;6.344;2023-10-09T08:13:37;6.63;;;4.50;;
9374;SDS011;4727;51.202;6.344;2023-10-09T08:16:21;8.10;;;5.27;;
9374;SDS011;4727;51.202;6.344;2023-10-09T08:18:49;7.33;;;5.00;;
9374;SDS011;4727;51.202;6.344;2023-10-09T08:21:19;7.53;;;4.77;;
9374;SDS011;4727;51.202;6.344;2023-10-09T08:23:45;7.47;;;4.70;;
9374;SDS011;4727;51.202;6.344;2023-10-09T08:26:14;5.93;;;4.83;;
9374;SDS011;4727;51.202;6.344;2023-10-09T08:28:54;7.77;;;5.13;;
9374;SDS011;4727;51.202;6.344;2023-10-09T08:31:42;6.23;;;4.97;;
9374;SDS011;4727;51.202;6.344;2023-10-09T08:34:13;6.10;;;4.60;;
9374;SDS011;4727;51.202;6.344;2023-10-09T08:36:52;8.10;;;4.73;;
9374;SDS011;4727;51.202;6.344;2023-10-09T08:39:18;7.10;;;5.27;;
9374;SDS011;4727;51.202;6.344;2023-10-09T08:41:58;6.23;;;5.00;;
9374;SDS011;4727;51.202;6.344;2023-10-09T08:44:24;5.33;;;4.73;;
9374;SDS011;4727;51.202;6.344;2023-10-09T08:46:53;5.90;;;4.60;;
9374;SDS011;4727;51.202;6.344;2023-10-09T08:49:20;7.07;;;4.57;;
9374;SDS011;4727;51.202;6.344;2023-10-09T08:51:46;6.17;;;4.73;;
9374;SDS011;4727;51.202;6.344;2023-10-09T08:54:13;6.90;;;5.03;;
9374;SDS011;4727;51.202;6.344;2023-10-09T08:56:40;9.93;;;4.80;;
9374;SDS011;4727;51.202;6.344;2023-10-09T08:59:14;7.33;;;4.83;;
9374;SDS011;4727;51.202;6.344;2023-10-09T09:01:44;13.03;;;4.87;;
9374;SDS011;4727;51.202;6.344;2023-10-09T09:04:33;5.63;;;4.17;;
9374;SDS011;4727;51.202;6.344;2023-10-09T09:07:25;7.47;;;4.83;;
9374;SDS011;4727;51.202;6.344;2023-10-09T09:09:56;5.77;;;4.90;;
9374;SDS011;4727;51.202;6.344;2023-10-09T09:12:22;5.90;;;4.30;;
9374;SDS011;4727;51.202;6.344;2023-10-09T09:14:49;9.93;;;4.70;;
9374;SDS011;4727;51.202;6.344;2023-10-09T09:17:22;6.90;;;5.33;;
9374;SDS011;4727;51.202;6.344;2023-10-09T09:19:48;7.47;;;4.77;;
9374;SDS011;4727;51.202;6.344;2023-10-09T09:22:19;9.97;;;5.13;;
9374;SDS011;4727;51.202;6.344;2023-10-09T09:24:56;7.03;;;4.30;;
9374;SDS011;4727;51.202;6.344;2023-10-09T09:27:44;5.43;;;4.93;;
9374;SDS011;4727;51.202;6.344;2023-10-09T09:30:27;6.27;;;4.60;;
9374;SDS011;4727;51.202;6.344;2023-10-09T09:32:58;6.60;;;4.77;;
9374;SDS011;4727;51.202;6.344;2023-10-09T09:36:15;11.53;;;4.67;;
9374;SDS011;4727;51.202;6.344;2023-10-09T09:38:36;5.93;;;5.33;;
9374;SDS011;4727;51.202;6.344;2023-10-09T09:41:15;6.30;;;4.77;;
9374;SDS011;4727;51.202;6.344;2023-10-09T09:43:51;6.00;;;4.47;;
9374;SDS011;4727;51.202;6.344;2023-10-09T09:46:22;5.80;;;4.57;;
9374;SDS011;4727;51.202;6.344;2023-10-09T09:48:58;8.63;;;5.33;;
9374;SDS011;4727;51.202;6.344;2023-10-09T09:51:30;7.87;;;5.23;;
9374;SDS011;4727;51.202;6.344;2023-10-09T09:53:56;8.40;;;5.03;;
9374;SDS011;4727;51.202;6.344;2023-10-09T09:56:25;5.13;;;4.63;;
9374;SDS011;4727;51.202;6.344;2023-10-09T09:58:53;6.60;;;4.67;;
9374;SDS011;4727;51.202;6.344;2023-10-09T10:01:23;6.87;;;4.90;;
9374;SDS011;4727;51.202;6.344;2023-10-09T10:04:03;6.17;;;5.53;;
9374;SDS011;4727;51.202;6.344;2023-10-09T10:06:36;9.37;;;5.10;;
9374;SDS011;4727;51.202;6.344;2023-10-09T10:09:06;8.17;;;5.63;;
9374;SDS011;4727;51.202;6.344;2023-10-09T10:11:42;6.57;;;5.07;;
9374;SDS011;4727;51.202;6.344;2023-10-09T10:14:14;5.00;;;4.53;;
9374;SDS011;4727;51.202;6.344;2023-10-09T10:17:14;9.40;;;4.80;;
9374;SDS011;4727;51.202;6.344;2023-10-09T10:22:26;6.90;;;4.53;;
9374;SDS011;4727;51.202;6.344;2023-10-09T10:24:53;11.23;;;4.63;;
9374;SDS011;4727;51.202;6.344;2023-10-09T10:27:23;8.57;;;5.27;;
9374;SDS011;4727;51.202;6.344;2023-10-09T10:32:53;8.63;;;5.07;;
9374;SDS011;4727;51.202;6.344;2023-10-09T10:35:22;5.87;;;4.50;;
9374;SDS011;4727;51.202;6.344;2023-10-09T10:37:59;9.60;;;4.53;;
9374;SDS011;4727;51.202;6.344;2023-10-09T10:40:45;7.17;;;4.33;;
9374;SDS011;4727;51.202;6.344;2023-10-09T10:43:14;7.90;;;4.80;;
9374;SDS011;4727;51.202;6.344;2023-10-09T10:46:06;4.70;;;3.90;;
9374;SDS011;4727;51.202;6.344;2023-10-09T10:48:51;7.13;;;4.63;;
9374;SDS011;4727;51.202;6.344;2023-10-09T10:51:50;6.90;;;4.77;;
9374;SDS011;4727;51.202;6.344;2023-10-09T10:54:26;9.07;;;5.23;;
9374;SDS011;4727;51.202;6.344;2023-10-09T10:56:58;4.73;;;4.07;;
9374;SDS011;4727;51.202;6.344;2023-10-09T10:59:25;7.43;;;4.47;;
9374;SDS011;4727;51.202;6.344;2023-10-09T11:01:58;6.27;;;4.53;;
9374;SDS011;4727;51.202;6.344;2023-10-09T11:04:27;7.23;;;5.73;;
9374;SDS011;4727;51.202;6.344;2023-10-09T11:07:10;5.77;;;3.87;;
9374;SDS011;4727;51.202;6.344;2023-10-09T11:09:53;6.73;;;5.10;;
9374;SDS011;4727;51.202;6.344;2023-10-09T11:15:34;9.07;;;5.00;;
9374;SDS011;4727;51.202;6.344;2023-10-09T11:18:10;5.27;;;4.77;;
9374;SDS011;4727;51.202;6.344;2023-10-09T11:20:51;7.47;;;4.87;;
9374;SDS011;4727;51.202;6.344;2023-10-09T11:23:24;7.30;;;4.50;;
9374;SDS011;4727;51.202;6.344;2023-10-09T11:25:59;8.00;;;4.43;;
9374;SDS011;4727;51.202;6.344;2023-10-09T11:28:44;5.37;;;4.10;;
9374;SDS011;4727;51.202;6.344;2023-10-09T11:31:22;6.97;;;4.33;;
9374;SDS011;4727;51.202;6.344;2023-10-09T11:33:51;5.47;;;4.20;;
9374;SDS011;4727;51.202;6.344;2023-10-09T11:36:18;7.50;;;4.13;;
9374;SDS011;4727;51.202;6.344;2023-10-09T11:38:58;6.83;;;4.30;;
9374;SDS011;4727;51.202;6.344;2023-10-09T11:41:43;3.90;;;3.23;;
9374;SDS011;4727;51.202;6.344;2023-10-09T11:44:09;5.67;;;4.53;;
9374;SDS011;4727;51.202;6.344;2023-10-09T11:46:59;5.07;;;3.73;;
9374;SDS011;4727;51.202;6.344;2023-10-09T11:49:48;4.33;;;3.90;;
9374;SDS011;4727;51.202;6.344;2023-10-09T11:52:21;6.00;;;4.33;;
9374;SDS011;4727;51.202;6.344;2023-10-09T11:54:57;6.63;;;4.67;;
9374;SDS011;4727;51.202;6.344;2023-10-09T11:57:26;4.40;;;4.00;;
9374;SDS011;4727;51.202;6.344;2023-10-09T11:59:57;5.97;;;4.33;;
9374;SDS011;4727;51.202;6.344;2023-10-09T12:02:23;6.07;;;3.97;;
9374;SDS011;4727;51.202;6.344;2023-10-09T12:04:49;5.53;;;4.03;;
9374;SDS011;4727;51.202;6.344;2023-10-09T12:07:15;5.97;;;4.10;;
9374;SDS011;4727;51.202;6.344;2023-10-09T12:09:41;4.00;;;3.60;;
9374;SDS011;4727;51.202;6.344;2023-10-09T12:12:07;5.70;;;4.00;;
9374;SDS011;4727;51.202;6.344;2023-10-09T12:14:36;7.17;;;4.30;;
9374;SDS011;4727;51.202;6.344;2023-10-09T12:17:05;5.90;;;4.53;;
9374;SDS011;4727;51.202;6.344;2023-10-09T12:19:35;8.23;;;4.37;;
9374;SDS011;4727;51.202;6.344;2023-10-09T12:22:03;6.43;;;4.67;;
9374;SDS011;4727;51.202;6.344;2023-10-09T12:24:30;5.23;;;4.40;;
9374;SDS011;4727;51.202;6.344;2023-10-09T12:26:58;5.00;;;4.27;;
9374;SDS011;4727;51.202;6.344;2023-10-09T12:29:24;6.80;;;4.07;;
9374;SDS011;4727;51.202;6.344;2023-10-09T12:31:54;4.90;;;4.27;;
9374;SDS011;4727;51.202;6.344;2023-10-09T12:34:24;4.63;;;4.10;;
9374;SDS011;4727;51.202;6.344;2023-10-09T12:36:52;5.57;;;3.97;;
9374;SDS011;4727;51.202;6.344;2023-10-09T12:39:26;6.90;;;4.20;;
9374;SDS011;4727;51.202;6.344;2023-10-09T12:41:56;4.43;;;3.77;;
9374;SDS011;4727;51.202;6.344;2023-10-09T12:44:26;5.37;;;3.73;;
9374;SDS011;4727;51.202;6.344;2023-10-09T12:46:52;7.23;;;4.50;;
9374;SDS011;4727;51.202;6.344;2023-10-09T12:49:18;5.27;;;4.10;;
9374;SDS011;4727;51.202;6.344;2023-10-09T12:51:49;5.83;;;4.33;;
9374;SDS011;4727;51.202;6.344;2023-10-09T12:54:16;7.17;;;4.20;;
9374;SDS011;4727;51.202;6.344;2023-10-09T12:56:45;8.10;;;4.83;;
9374;SDS011;4727;51.202;6.344;2023-10-09T12:59:13;4.43;;;4.03;;
9374;SDS011;4727;51.202;6.344;2023-10-09T13:01:40;7.50;;;4.90;;
9374;SDS011;4727;51.202;6.344;2023-10-09T13:04:12;11.53;;;4.50;;
9374;SDS011;4727;51.202;6.344;2023-10-09T13:06:44;4.93;;;4.40;;
9374;SDS011;4727;51.202;6.344;2023-10-09T13:09:16;6.10;;;4.53;;
9374;SDS011;4727;51.202;6.344;2023-10-09T13:12:00;6.43;;;4.23;;
9374;SDS011;4727;51.202;6.344;2023-10-09T13:14:27;6.00;;;4.87;;
9374;SDS011;4727;51.202;6.344;2023-10-09T13:16:52;6.07;;;4.40;;
9374;SDS011;4727;51.202;6.344;2023-10-09T13:19:18;7.67;;;4.60;;
9374;SDS011;4727;51.202;6.344;2023-10-09T13:21:44;5.50;;;4.50;;
9374;SDS011;4727;51.202;6.344;2023-10-09T13:24:11;10.13;;;5.23;;
9374;SDS011;4727;51.202;6.344;2023-10-09T13:26:44;8.23;;;4.23;;
9374;SDS011;4727;51.202;6.344;2023-10-09T13:29:11;5.40;;;4.13;;
9374;SDS011;4727;51.202;6.344;2023-10-09T13:31:38;5.33;;;4.60;;
9374;SDS011;4727;51.202;6.344;2023-10-09T13:34:05;6.07;;;3.80;;
9374;SDS011;4727;51.202;6.344;2023-10-09T13:36:40;5.43;;;4.63;;
9374;SDS011;4727;51.202;6.344;2023-10-09T13:39:14;6.37;;;3.60;;
9374;SDS011;4727;51.202;6.344;2023-10-09T13:41:53;7.60;;;4.57;;
9374;SDS011;4727;51.202;6.344;2023-10-09T13:44:23;6.93;;;4.20;;
9374;SDS011;4727;51.202;6.344;2023-10-09T13:46:51;7.00;;;5.13;;
9374;SDS011;4727;51.202;6.344;2023-10-09T13:49:18;4.67;;;3.90;;
9374;SDS011;4727;51.202;6.344;2023-10-09T13:51:47;5.63;;;4.63;;
9374;SDS011;4727;51.202;6.344;2023-10-09T13:54:14;7.13;;;4.60;;
9374;SDS011;4727;51.202;6.344;2023-10-09T13:56:53;5.53;;;4.60;;
9374;SDS011;4727;51.202;6.344;2023-10-09T13:59:22;5.90;;;4.97;;
9374;SDS011;4727;51.202;6.344;2023-10-09T14:01:50;7.10;;;5.13;;
9374;SDS011;4727;51.202;6.344;2023-10-09T14:04:19;5.73;;;5.10;;
9374;SDS011;4727;51.202;6.344;2023-10-09T14:06:48;10.60;;;4.60;;
9374;SDS011;4727;51.202;6.344;2023-10-09T14:09:21;6.77;;;5.17;;
9374;SDS011;4727;51.202;6.344;2023-10-09T14:11:56;8.13;;;5.60;;
9374;SDS011;4727;51.202;6.344;2023-10-09T14:14:32;8.17;;;5.00;;
9374;SDS011;4727;51.202;6.344;2023-10-09T14:17:04;6.53;;;5.07;;
9374;SDS011;4727;51.202;6.344;2023-10-09T14:19:36;7.40;;;4.80;;
9374;SDS011;4727;51.202;6.344;2023-10-09T14:22:21;6.80;;;4.93;;
9374;SDS011;4727;51.202;6.344;2023-10-09T14:24:55;8.33;;;5.67;;
9374;SDS011;4727;51.202;6.344;2023-10-09T14:27:21;8.43;;;5.27;;
9374;SDS011;4727;51.202;6.344;2023-10-09T14:29:51;7.20;;;4.60;;
9374;SDS011;4727;51.202;6.344;2023-10-09T14:32:21;7.30;;;4.53;;
9374;SDS011;4727;51.202;6.344;2023-10-09T14:34:53;5.73;;;5.10;;
9374;SDS011;4727;51.202;6.344;2023-10-09T14:37:25;8.33;;;4.83;;
9374;SDS011;4727;51.202;6.344;2023-10-09T14:39:57;5.50;;;4.70;;
9374;SDS011;4727;51.202;6.344;2023-10-09T14:42:23;4.93;;;4.27;;
9374;SDS011;4727;51.202;6.344;2023-10-09T14:44:52;7.93;;;4.97;;
9374;SDS011;4727;51.202;6.344;2023-10-09T14:47:18;5.43;;;4.83;;
9374;SDS011;4727;51.202;6.344;2023-10-09T14:49:46;5.97;;;3.90;;
9374;SDS011;4727;51.202;6.344;2023-10-09T14:52:12;7.30;;;4.73;;
9374;SDS011;4727;51.202;6.344;2023-10-09T14:54:44;6.77;;;4.80;;
9374;SDS011;4727;51.202;6.344;2023-10-09T14:57:10;5.20;;;4.07;;
9374;SDS011;4727;51.202;6.344;2023-10-09T14:59:36;6.40;;;4.70;;
9374;SDS011;4727;51.202;6.344;2023-10-09T15:02:03;8.00;;;4.70;;
9374;SDS011;4727;51.202;6.344;2023-10-09T15:04:30;10.23;;;4.70;;
9374;SDS011;4727;51.202;6.344;2023-10-09T15:06:56;7.00;;;5.27;;
9374;SDS011;4727;51.202;6.344;2023-10-09T15:09:22;6.60;;;5.40;;
9374;SDS011;4727;51.202;6.344;2023-10-09T15:11:53;8.80;;;5.43;;
9374;SDS011;4727;51.202;6.344;2023-10-09T15:14:18;6.90;;;4.80;;
9374;SDS011;4727;51.202;6.344;2023-10-09T15:16:45;8.93;;;5.23;;
9374;SDS011;4727;51.202;6.344;2023-10-09T15:19:11;6.60;;;4.93;;
9374;SDS011;4727;51.202;6.344;2023-10-09T15:21:37;7.87;;;5.63;;
9374;SDS011;4727;51.202;6.344;2023-10-09T15:24:09;5.43;;;4.80;;
9374;SDS011;4727;51.202;6.344;2023-10-09T15:26:42;7.77;;;4.57;;
9374;SDS011;4727;51.202;6.344;2023-10-09T15:29:08;5.67;;;4.00;;
9374;SDS011;4727;51.202;6.344;2023-10-09T15:31:35;7.03;;;4.43;;
9374;SDS011;4727;51.202;6.344;2023-10-09T15:34:01;7.60;;;4.50;;
9374;SDS011;4727;51.202;6.344;2023-10-09T15:36:27;5.27;;;4.67;;
9374;SDS011;4727;51.202;6.344;2023-10-09T15:38:56;5.50;;;4.60;;
9374;SDS011;4727;51.202;6.344;2023-10-09T15:41:28;5.90;;;3.87;;
9374;SDS011;4727;51.202;6.344;2023-10-09T15:43:58;6.77;;;4.50;;
9374;SDS011;4727;51.202;6.344;2023-10-09T15:46:23;7.57;;;4.63;;
9374;SDS011;4727;51.202;6.344;2023-10-09T15:48:51;8.70;;;5.10;;
9374;SDS011;4727;51.202;6.344;2023-10-09T15:51:18;7.17;;;4.80;;
9374;SDS011;4727;51.202;6.344;2023-10-09T15:53:44;5.57;;;4.60;;
9374;SDS011;4727;51.202;6.344;2023-10-09T15:56:10;7.67;;;4.80;;
9374;SDS011;4727;51.202;6.344;2023-10-09T15:58:40;6.87;;;4.73;;
9374;SDS011;4727;51.202;6.344;2023-10-09T16:01:10;5.47;;;4.47;;